sensor_id;sensor_type;location;lat;lon;timestamp;P1;durP1;ratioP1;P2;durP2;ratioP2
8413;SDS011;4244;48.684;9.028;2023-04-16T00:01:21;10.67;;;9.67;;
8413;SDS011;4244;48.684;9.028;2023-04-16T00:03:47;11.33;;;10.23;;
8413;SDS011;4244;48.684;9.028;2023-04-16T00:06:13;11.13;;;10.13;;
8413;SDS011;4244;48.684;9.028;2023-04-16T00:08:38;11.57;;;10.57;;
8413;SDS011;4244;48.684;9.028;2023-04-16T00:11:05;11.70;;;10.60;;
8413;SDS011;4244;48.684;9.028;2023-04-16T00:13:31;11.33;;;10.13;;
8413;SDS011;4244;48.684;9.028;2023-04-16T00:15:56;11.87;;;10.70;;
8413;SDS011;4244;48.684;9.028;2023-04-16T00:18:23;11.70;;;10.60;;
8413;SDS011;4244;48.684;9.028;2023-04-16T00:20:48;11.53;;;10.33;;
8413;SDS011;4244;48.684;9.028;2023-04-16T00:23:14;12.63;;;11.40;;
8413;SDS011;4244;48.684;9.028;2023-04-16T00:25:40;12.60;;;11.37;;
8413;SDS011;4244;48.684;9.028;2023-04-16T00:28:06;12.27;;;11.13;;
8413;SDS011;4244;48.684;9.028;2023-04-16T00:30:32;12.03;;;10.83;;
8413;SDS011;4244;48.684;9.028;2023-04-16T00:32:58;12.40;;;11.20;;
8413;SDS011;4244;48.684;9.028;2023-04-16T00:35:24;12.80;;;11.60;;
8413;SDS011;4244;48.684;9.028;2023-04-16T00:37:49;12.43;;;11.23;;
8413;SDS011;4244;48.684;9.028;2023-04-16T00:40:15;12.10;;;10.83;;
8413;SDS011;4244;48.684;9.028;2023-04-16T00:42:40;11.60;;;10.47;;
8413;SDS011;4244;48.684;9.028;2023-04-16T00:45:06;12.00;;;10.80;;
8413;SDS011;4244;48.684;9.028;2023-04-16T00:47:32;12.73;;;11.50;;
8413;SDS011;4244;48.684;9.028;2023-04-16T00:49:58;11.70;;;10.60;;
8413;SDS011;4244;48.684;9.028;2023-04-16T00:52:24;11.17;;;10.07;;
8413;SDS011;4244;48.684;9.028;2023-04-16T00:54:50;11.83;;;10.73;;
8413;SDS011;4244;48.684;9.028;2023-04-16T00:57:16;11.27;;;10.17;;
8413;SDS011;4244;48.684;9.028;2023-04-16T00:59:44;12.57;;;11.17;;
8413;SDS011;4244;48.684;9.028;2023-04-16T01:02:10;12.47;;;11.27;;
8413;SDS011;4244;48.684;9.028;2023-04-16T01:04:36;12.83;;;11.53;;
8413;SDS011;4244;48.684;9.028;2023-04-16T01:07:02;12.43;;;11.23;;
8413;SDS011;4244;48.684;9.028;2023-04-16T01:09:27;13.20;;;11.80;;
8413;SDS011;4244;48.684;9.028;2023-04-16T01:11:53;13.03;;;11.73;;
8413;SDS011;4244;48.684;9.028;2023-04-16T01:14:18;13.07;;;11.80;;
8413;SDS011;4244;48.684;9.028;2023-04-16T01:16:44;12.67;;;11.47;;
8413;SDS011;4244;48.684;9.028;2023-04-16T01:19:10;12.10;;;10.90;;
8413;SDS011;4244;48.684;9.028;2023-04-16T01:21:35;13.20;;;11.47;;
8413;SDS011;4244;48.684;9.028;2023-04-16T01:24:02;11.60;;;10.47;;
8413;SDS011;4244;48.684;9.028;2023-04-16T01:26:28;12.53;;;11.23;;
8413;SDS011;4244;48.684;9.028;2023-04-16T01:28:54;11.70;;;10.50;;
8413;SDS011;4244;48.684;9.028;2023-04-16T01:34:33;11.10;;;10.00;;
8413;SDS011;4244;48.684;9.028;2023-04-16T01:36:58;10.83;;;9.70;;
8413;SDS011;4244;48.684;9.028;2023-04-16T01:39:24;10.70;;;9.60;;
8413;SDS011;4244;48.684;9.028;2023-04-16T01:41:50;11.93;;;10.73;;
8413;SDS011;4244;48.684;9.028;2023-04-16T01:44:15;10.40;;;9.40;;
8413;SDS011;4244;48.684;9.028;2023-04-16T01:46:41;9.90;;;9.00;;
8413;SDS011;4244;48.684;9.028;2023-04-16T01:49:07;10.53;;;9.53;;
8413;SDS011;4244;48.684;9.028;2023-04-16T01:51:32;8.80;;;7.90;;
8413;SDS011;4244;48.684;9.028;2023-04-16T01:53:58;9.37;;;8.47;;
8413;SDS011;4244;48.684;9.028;2023-04-16T01:56:24;10.07;;;9.07;;
8413;SDS011;4244;48.684;9.028;2023-04-16T01:58:51;9.10;;;8.20;;
8413;SDS011;4244;48.684;9.028;2023-04-16T02:01:17;10.00;;;8.60;;
8413;SDS011;4244;48.684;9.028;2023-04-16T02:03:42;9.07;;;8.23;;
8413;SDS011;4244;48.684;9.028;2023-04-16T02:06:08;8.63;;;7.73;;
8413;SDS011;4244;48.684;9.028;2023-04-16T02:08:34;8.00;;;7.20;;
8413;SDS011;4244;48.684;9.028;2023-04-16T02:10:59;8.60;;;7.80;;
8413;SDS011;4244;48.684;9.028;2023-04-16T02:13:25;7.87;;;7.13;;
8413;SDS011;4244;48.684;9.028;2023-04-16T02:15:51;8.30;;;7.40;;
8413;SDS011;4244;48.684;9.028;2023-04-16T02:18:17;8.37;;;7.30;;
8413;SDS011;4244;48.684;9.028;2023-04-16T02:20:43;8.80;;;7.90;;
8413;SDS011;4244;48.684;9.028;2023-04-16T02:23:10;8.17;;;7.37;;
8413;SDS011;4244;48.684;9.028;2023-04-16T02:25:39;7.70;;;6.93;;
8413;SDS011;4244;48.684;9.028;2023-04-16T02:28:07;7.87;;;7.10;;
8413;SDS011;4244;48.684;9.028;2023-04-16T02:30:34;8.10;;;7.30;;
8413;SDS011;4244;48.684;9.028;2023-04-16T02:33:00;9.17;;;7.60;;
8413;SDS011;4244;48.684;9.028;2023-04-16T02:35:28;8.97;;;8.03;;
8413;SDS011;4244;48.684;9.028;2023-04-16T02:37:54;7.83;;;6.80;;
8413;SDS011;4244;48.684;9.028;2023-04-16T02:40:20;8.27;;;6.70;;
8413;SDS011;4244;48.684;9.028;2023-04-16T02:42:45;8.50;;;7.70;;
8413;SDS011;4244;48.684;9.028;2023-04-16T02:45:11;8.43;;;7.53;;
8413;SDS011;4244;48.684;9.028;2023-04-16T02:47:37;9.77;;;8.77;;
8413;SDS011;4244;48.684;9.028;2023-04-16T02:50:02;8.00;;;7.07;;
8413;SDS011;4244;48.684;9.028;2023-04-16T02:52:28;8.40;;;7.60;;
8413;SDS011;4244;48.684;9.028;2023-04-16T02:54:54;7.60;;;6.63;;
8413;SDS011;4244;48.684;9.028;2023-04-16T02:57:19;7.47;;;6.77;;
8413;SDS011;4244;48.684;9.028;2023-04-16T02:59:45;10.03;;;7.93;;
8413;SDS011;4244;48.684;9.028;2023-04-16T03:02:10;7.50;;;6.70;;
8413;SDS011;4244;48.684;9.028;2023-04-16T03:04:37;7.57;;;6.87;;
8413;SDS011;4244;48.684;9.028;2023-04-16T03:07:03;7.80;;;7.00;;
8413;SDS011;4244;48.684;9.028;2023-04-16T03:09:28;8.70;;;7.80;;
8413;SDS011;4244;48.684;9.028;2023-04-16T03:11:54;9.83;;;8.53;;
8413;SDS011;4244;48.684;9.028;2023-04-16T03:14:20;8.00;;;7.20;;
8413;SDS011;4244;48.684;9.028;2023-04-16T03:16:46;8.57;;;7.67;;
8413;SDS011;4244;48.684;9.028;2023-04-16T03:19:11;11.73;;;8.50;;
8413;SDS011;4244;48.684;9.028;2023-04-16T03:21:37;12.23;;;9.13;;
8413;SDS011;4244;48.684;9.028;2023-04-16T03:24:03;9.67;;;8.77;;
8413;SDS011;4244;48.684;9.028;2023-04-16T03:26:28;9.70;;;8.67;;
8413;SDS011;4244;48.684;9.028;2023-04-16T03:28:54;10.80;;;9.70;;
8413;SDS011;4244;48.684;9.028;2023-04-16T03:31:19;11.57;;;8.90;;
8413;SDS011;4244;48.684;9.028;2023-04-16T03:33:47;9.80;;;8.73;;
8413;SDS011;4244;48.684;9.028;2023-04-16T03:36:13;12.60;;;9.80;;
8413;SDS011;4244;48.684;9.028;2023-04-16T03:38:38;12.83;;;10.30;;
8413;SDS011;4244;48.684;9.028;2023-04-16T03:41:04;12.23;;;10.60;;
8413;SDS011;4244;48.684;9.028;2023-04-16T03:43:30;11.93;;;9.87;;
8413;SDS011;4244;48.684;9.028;2023-04-16T03:45:55;13.30;;;11.37;;
8413;SDS011;4244;48.684;9.028;2023-04-16T03:48:21;15.10;;;12.13;;
8413;SDS011;4244;48.684;9.028;2023-04-16T03:50:46;12.73;;;11.00;;
8413;SDS011;4244;48.684;9.028;2023-04-16T03:53:12;12.10;;;10.60;;
8413;SDS011;4244;48.684;9.028;2023-04-16T03:55:38;10.93;;;9.47;;
8413;SDS011;4244;48.684;9.028;2023-04-16T03:58:04;11.37;;;10.10;;
8413;SDS011;4244;48.684;9.028;2023-04-16T04:00:30;11.33;;;9.70;;
8413;SDS011;4244;48.684;9.028;2023-04-16T04:02:55;12.63;;;10.60;;
8413;SDS011;4244;48.684;9.028;2023-04-16T04:05:21;12.60;;;10.27;;
8413;SDS011;4244;48.684;9.028;2023-04-16T04:07:47;13.17;;;9.40;;
8413;SDS011;4244;48.684;9.028;2023-04-16T04:10:12;12.67;;;10.13;;
8413;SDS011;4244;48.684;9.028;2023-04-16T04:12:38;12.60;;;9.80;;
8413;SDS011;4244;48.684;9.028;2023-04-16T04:15:04;12.10;;;9.27;;
8413;SDS011;4244;48.684;9.028;2023-04-16T04:17:30;11.17;;;9.03;;
8413;SDS011;4244;48.684;9.028;2023-04-16T04:19:55;12.30;;;9.27;;
8413;SDS011;4244;48.684;9.028;2023-04-16T04:22:21;12.17;;;8.87;;
8413;SDS011;4244;48.684;9.028;2023-04-16T04:24:47;11.90;;;8.97;;
8413;SDS011;4244;48.684;9.028;2023-04-16T04:27:12;10.97;;;9.80;;
8413;SDS011;4244;48.684;9.028;2023-04-16T04:29:38;10.20;;;8.93;;
8413;SDS011;4244;48.684;9.028;2023-04-16T04:32:03;10.67;;;9.20;;
8413;SDS011;4244;48.684;9.028;2023-04-16T04:34:29;10.97;;;8.50;;
8413;SDS011;4244;48.684;9.028;2023-04-16T04:36:55;9.80;;;8.07;;
8413;SDS011;4244;48.684;9.028;2023-04-16T04:39:20;10.47;;;8.40;;
8413;SDS011;4244;48.684;9.028;2023-04-16T04:41:46;9.90;;;7.87;;
8413;SDS011;4244;48.684;9.028;2023-04-16T04:44:12;10.40;;;8.47;;
8413;SDS011;4244;48.684;9.028;2023-04-16T04:46:38;10.20;;;9.00;;
8413;SDS011;4244;48.684;9.028;2023-04-16T04:49:04;10.30;;;8.87;;
8413;SDS011;4244;48.684;9.028;2023-04-16T04:51:30;9.20;;;7.43;;
8413;SDS011;4244;48.684;9.028;2023-04-16T04:53:56;10.17;;;8.83;;
8413;SDS011;4244;48.684;9.028;2023-04-16T04:56:22;11.07;;;9.97;;
8413;SDS011;4244;48.684;9.028;2023-04-16T04:58:51;10.00;;;9.00;;
8413;SDS011;4244;48.684;9.028;2023-04-16T05:01:16;11.07;;;8.77;;
8413;SDS011;4244;48.684;9.028;2023-04-16T05:03:42;10.97;;;9.83;;
8413;SDS011;4244;48.684;9.028;2023-04-16T05:06:08;11.33;;;10.13;;
8413;SDS011;4244;48.684;9.028;2023-04-16T05:08:33;11.53;;;9.50;;
8413;SDS011;4244;48.684;9.028;2023-04-16T05:10:59;12.83;;;11.03;;
8413;SDS011;4244;48.684;9.028;2023-04-16T05:13:25;12.60;;;10.17;;
8413;SDS011;4244;48.684;9.028;2023-04-16T05:15:51;12.50;;;10.10;;
8413;SDS011;4244;48.684;9.028;2023-04-16T05:18:16;15.00;;;10.77;;
8413;SDS011;4244;48.684;9.028;2023-04-16T05:20:42;12.37;;;9.53;;
8413;SDS011;4244;48.684;9.028;2023-04-16T05:23:07;11.47;;;10.03;;
8413;SDS011;4244;48.684;9.028;2023-04-16T05:25:33;11.70;;;10.37;;
8413;SDS011;4244;48.684;9.028;2023-04-16T05:27:59;14.20;;;12.33;;
8413;SDS011;4244;48.684;9.028;2023-04-16T05:30:24;14.53;;;10.90;;
8413;SDS011;4244;48.684;9.028;2023-04-16T05:32:50;16.17;;;12.20;;
8413;SDS011;4244;48.684;9.028;2023-04-16T05:35:15;15.83;;;13.10;;
8413;SDS011;4244;48.684;9.028;2023-04-16T05:37:41;19.47;;;13.83;;
8413;SDS011;4244;48.684;9.028;2023-04-16T05:40:07;25.20;;;17.20;;
8413;SDS011;4244;48.684;9.028;2023-04-16T05:42:33;24.37;;;18.60;;
8413;SDS011;4244;48.684;9.028;2023-04-16T05:44:58;22.57;;;18.70;;
8413;SDS011;4244;48.684;9.028;2023-04-16T05:47:26;29.30;;;20.10;;
8413;SDS011;4244;48.684;9.028;2023-04-16T05:49:51;23.30;;;17.63;;
8413;SDS011;4244;48.684;9.028;2023-04-16T05:52:17;24.20;;;18.73;;
8413;SDS011;4244;48.684;9.028;2023-04-16T05:54:42;20.53;;;16.30;;
8413;SDS011;4244;48.684;9.028;2023-04-16T05:57:08;28.53;;;19.70;;
8413;SDS011;4244;48.684;9.028;2023-04-16T05:59:34;26.63;;;20.10;;
8413;SDS011;4244;48.684;9.028;2023-04-16T06:01:59;24.70;;;20.20;;
8413;SDS011;4244;48.684;9.028;2023-04-16T06:04:25;27.97;;;20.07;;
8413;SDS011;4244;48.684;9.028;2023-04-16T06:06:52;26.13;;;21.20;;
8413;SDS011;4244;48.684;9.028;2023-04-16T06:09:18;27.40;;;20.30;;
8413;SDS011;4244;48.684;9.028;2023-04-16T06:11:43;26.80;;;21.20;;
8413;SDS011;4244;48.684;9.028;2023-04-16T06:16:54;26.43;;;21.90;;
8413;SDS011;4244;48.684;9.028;2023-04-16T06:19:20;27.93;;;20.50;;
8413;SDS011;4244;48.684;9.028;2023-04-16T06:21:45;28.40;;;20.40;;
8413;SDS011;4244;48.684;9.028;2023-04-16T06:24:11;27.70;;;20.00;;
8413;SDS011;4244;48.684;9.028;2023-04-16T06:26:37;27.70;;;19.70;;
8413;SDS011;4244;48.684;9.028;2023-04-16T06:29:03;28.93;;;20.57;;
8413;SDS011;4244;48.684;9.028;2023-04-16T06:31:28;29.87;;;23.10;;
8413;SDS011;4244;48.684;9.028;2023-04-16T06:33:54;26.93;;;19.77;;
8413;SDS011;4244;48.684;9.028;2023-04-16T06:36:20;25.23;;;19.00;;
8413;SDS011;4244;48.684;9.028;2023-04-16T06:38:45;30.17;;;22.97;;
8413;SDS011;4244;48.684;9.028;2023-04-16T06:41:12;32.10;;;23.13;;
8413;SDS011;4244;48.684;9.028;2023-04-16T06:43:38;33.47;;;23.53;;
8413;SDS011;4244;48.684;9.028;2023-04-16T06:46:03;36.03;;;25.57;;
8413;SDS011;4244;48.684;9.028;2023-04-16T06:48:29;31.53;;;23.93;;
8413;SDS011;4244;48.684;9.028;2023-04-16T06:50:55;32.03;;;24.67;;
8413;SDS011;4244;48.684;9.028;2023-04-16T06:53:21;36.20;;;25.17;;
8413;SDS011;4244;48.684;9.028;2023-04-16T06:55:47;32.07;;;24.20;;
8413;SDS011;4244;48.684;9.028;2023-04-16T06:58:13;33.30;;;23.77;;
8413;SDS011;4244;48.684;9.028;2023-04-16T07:00:38;34.13;;;24.80;;
8413;SDS011;4244;48.684;9.028;2023-04-16T07:03:04;39.50;;;27.00;;
8413;SDS011;4244;48.684;9.028;2023-04-16T07:05:30;37.63;;;26.73;;
8413;SDS011;4244;48.684;9.028;2023-04-16T07:07:56;35.33;;;25.03;;
8413;SDS011;4244;48.684;9.028;2023-04-16T07:10:22;34.80;;;26.50;;
8413;SDS011;4244;48.684;9.028;2023-04-16T07:12:48;37.47;;;27.20;;
8413;SDS011;4244;48.684;9.028;2023-04-16T07:15:14;36.00;;;26.70;;
8413;SDS011;4244;48.684;9.028;2023-04-16T07:17:41;35.67;;;24.53;;
8413;SDS011;4244;48.684;9.028;2023-04-16T07:20:06;35.90;;;26.50;;
8413;SDS011;4244;48.684;9.028;2023-04-16T07:22:32;34.37;;;25.10;;
8413;SDS011;4244;48.684;9.028;2023-04-16T07:24:58;33.40;;;24.07;;
8413;SDS011;4244;48.684;9.028;2023-04-16T07:27:24;34.17;;;23.70;;
8413;SDS011;4244;48.684;9.028;2023-04-16T07:29:49;31.93;;;23.00;;
8413;SDS011;4244;48.684;9.028;2023-04-16T07:32:15;35.57;;;24.87;;
8413;SDS011;4244;48.684;9.028;2023-04-16T07:34:41;30.07;;;24.10;;
8413;SDS011;4244;48.684;9.028;2023-04-16T07:37:07;31.10;;;24.60;;
8413;SDS011;4244;48.684;9.028;2023-04-16T07:39:32;31.27;;;22.20;;
8413;SDS011;4244;48.684;9.028;2023-04-16T07:41:58;32.80;;;22.87;;
8413;SDS011;4244;48.684;9.028;2023-04-16T07:44:23;31.57;;;24.23;;
8413;SDS011;4244;48.684;9.028;2023-04-16T07:46:49;29.83;;;21.57;;
8413;SDS011;4244;48.684;9.028;2023-04-16T07:49:15;31.07;;;23.70;;
8413;SDS011;4244;48.684;9.028;2023-04-16T07:51:40;36.67;;;26.03;;
8413;SDS011;4244;48.684;9.028;2023-04-16T07:54:06;26.73;;;21.40;;
8413;SDS011;4244;48.684;9.028;2023-04-16T07:56:31;26.67;;;21.10;;
8413;SDS011;4244;48.684;9.028;2023-04-16T07:58:57;27.67;;;21.30;;
8413;SDS011;4244;48.684;9.028;2023-04-16T08:01:23;26.60;;;22.40;;
8413;SDS011;4244;48.684;9.028;2023-04-16T08:03:49;28.50;;;21.50;;
8413;SDS011;4244;48.684;9.028;2023-04-16T08:06:15;28.57;;;21.83;;
8413;SDS011;4244;48.684;9.028;2023-04-16T08:08:40;25.60;;;21.20;;
8413;SDS011;4244;48.684;9.028;2023-04-16T08:11:06;26.50;;;21.90;;
8413;SDS011;4244;48.684;9.028;2023-04-16T08:13:31;29.20;;;22.80;;
8413;SDS011;4244;48.684;9.028;2023-04-16T08:15:57;31.50;;;23.03;;
8413;SDS011;4244;48.684;9.028;2023-04-16T08:18:23;28.60;;;21.87;;
8413;SDS011;4244;48.684;9.028;2023-04-16T08:20:48;26.43;;;20.50;;
8413;SDS011;4244;48.684;9.028;2023-04-16T08:23:14;30.27;;;20.70;;
8413;SDS011;4244;48.684;9.028;2023-04-16T08:25:40;28.10;;;22.70;;
8413;SDS011;4244;48.684;9.028;2023-04-16T08:28:05;31.23;;;26.90;;
8413;SDS011;4244;48.684;9.028;2023-04-16T08:30:31;30.67;;;23.93;;
8413;SDS011;4244;48.684;9.028;2023-04-16T08:32:57;45.87;;;32.33;;
8413;SDS011;4244;48.684;9.028;2023-04-16T08:35:23;33.43;;;24.80;;
8413;SDS011;4244;48.684;9.028;2023-04-16T08:37:48;36.97;;;28.50;;
8413;SDS011;4244;48.684;9.028;2023-04-16T08:40:14;31.80;;;25.40;;
8413;SDS011;4244;48.684;9.028;2023-04-16T08:42:44;29.53;;;25.37;;
8413;SDS011;4244;48.684;9.028;2023-04-16T08:45:18;28.60;;;22.30;;
8413;SDS011;4244;48.684;9.028;2023-04-16T08:47:44;31.03;;;23.43;;
8413;SDS011;4244;48.684;9.028;2023-04-16T08:50:13;26.23;;;22.13;;
8413;SDS011;4244;48.684;9.028;2023-04-16T08:52:58;35.17;;;26.60;;
8413;SDS011;4244;48.684;9.028;2023-04-16T08:55:34;27.03;;;21.27;;
8413;SDS011;4244;48.684;9.028;2023-04-16T08:58:03;30.57;;;22.63;;
8413;SDS011;4244;48.684;9.028;2023-04-16T09:00:38;25.13;;;20.80;;
8413;SDS011;4244;48.684;9.028;2023-04-16T09:03:07;28.77;;;22.40;;
8413;SDS011;4244;48.684;9.028;2023-04-16T09:05:34;24.07;;;19.10;;
8413;SDS011;4244;48.684;9.028;2023-04-16T09:08:03;19.87;;;15.17;;
8413;SDS011;4244;48.684;9.028;2023-04-16T09:10:30;17.77;;;13.47;;
8413;SDS011;4244;48.684;9.028;2023-04-16T09:12:56;14.67;;;13.20;;
8413;SDS011;4244;48.684;9.028;2023-04-16T09:15:22;15.37;;;12.00;;
8413;SDS011;4244;48.684;9.028;2023-04-16T09:17:49;19.80;;;15.20;;
8413;SDS011;4244;48.684;9.028;2023-04-16T09:20:16;15.03;;;13.07;;
8413;SDS011;4244;48.684;9.028;2023-04-16T09:22:42;19.87;;;16.40;;
8413;SDS011;4244;48.684;9.028;2023-04-16T09:25:10;19.93;;;17.73;;
8413;SDS011;4244;48.684;9.028;2023-04-16T09:27:36;14.37;;;12.97;;
8413;SDS011;4244;48.684;9.028;2023-04-16T09:30:17;14.20;;;12.80;;
8413;SDS011;4244;48.684;9.028;2023-04-16T09:32:46;15.13;;;13.63;;
8413;SDS011;4244;48.684;9.028;2023-04-16T09:35:13;17.70;;;15.03;;
8413;SDS011;4244;48.684;9.028;2023-04-16T09:37:40;15.60;;;14.00;;
8413;SDS011;4244;48.684;9.028;2023-04-16T09:40:05;16.80;;;15.00;;
8413;SDS011;4244;48.684;9.028;2023-04-16T09:42:32;19.13;;;15.23;;
8413;SDS011;4244;48.684;9.028;2023-04-16T09:45:00;17.03;;;15.30;;
8413;SDS011;4244;48.684;9.028;2023-04-16T09:47:37;21.17;;;18.93;;
8413;SDS011;4244;48.684;9.028;2023-04-16T09:50:05;18.83;;;15.67;;
8413;SDS011;4244;48.684;9.028;2023-04-16T09:52:35;18.57;;;16.47;;
8413;SDS011;4244;48.684;9.028;2023-04-16T09:55:02;25.70;;;21.03;;
8413;SDS011;4244;48.684;9.028;2023-04-16T09:57:28;23.93;;;18.80;;
8413;SDS011;4244;48.684;9.028;2023-04-16T09:59:54;22.67;;;17.80;;
8413;SDS011;4244;48.684;9.028;2023-04-16T10:02:26;24.43;;;19.13;;
8413;SDS011;4244;48.684;9.028;2023-04-16T10:04:53;23.67;;;18.10;;
8413;SDS011;4244;48.684;9.028;2023-04-16T10:07:19;22.63;;;19.10;;
8413;SDS011;4244;48.684;9.028;2023-04-16T10:09:46;25.20;;;19.43;;
8413;SDS011;4244;48.684;9.028;2023-04-16T10:12:12;21.90;;;18.40;;
8413;SDS011;4244;48.684;9.028;2023-04-16T10:14:39;22.40;;;17.87;;
8413;SDS011;4244;48.684;9.028;2023-04-16T10:17:05;24.90;;;19.13;;
8413;SDS011;4244;48.684;9.028;2023-04-16T10:19:32;27.30;;;18.47;;
8413;SDS011;4244;48.684;9.028;2023-04-16T10:21:58;22.33;;;18.37;;
8413;SDS011;4244;48.684;9.028;2023-04-16T10:24:25;22.30;;;18.77;;
8413;SDS011;4244;48.684;9.028;2023-04-16T10:26:51;24.33;;;18.20;;
8413;SDS011;4244;48.684;9.028;2023-04-16T10:29:18;24.50;;;18.40;;
8413;SDS011;4244;48.684;9.028;2023-04-16T10:31:45;22.90;;;18.03;;
8413;SDS011;4244;48.684;9.028;2023-04-16T10:34:11;19.03;;;16.50;;
8413;SDS011;4244;48.684;9.028;2023-04-16T10:36:37;22.50;;;17.43;;
8413;SDS011;4244;48.684;9.028;2023-04-16T10:39:05;21.73;;;17.50;;
8413;SDS011;4244;48.684;9.028;2023-04-16T10:41:34;23.33;;;19.70;;
8413;SDS011;4244;48.684;9.028;2023-04-16T10:44:10;23.50;;;18.83;;
8413;SDS011;4244;48.684;9.028;2023-04-16T10:46:40;25.43;;;21.43;;
8413;SDS011;4244;48.684;9.028;2023-04-16T10:51:41;25.30;;;21.53;;
8413;SDS011;4244;48.684;9.028;2023-04-16T10:56:35;30.40;;;24.73;;
8413;SDS011;4244;48.684;9.028;2023-04-16T10:59:04;30.80;;;24.80;;
8413;SDS011;4244;48.684;9.028;2023-04-16T11:01:32;31.73;;;23.93;;
8413;SDS011;4244;48.684;9.028;2023-04-16T11:04:00;28.50;;;22.47;;
8413;SDS011;4244;48.684;9.028;2023-04-16T11:12:18;21.03;;;17.87;;
8413;SDS011;4244;48.684;9.028;2023-04-16T11:14:52;26.60;;;21.47;;
8413;SDS011;4244;48.684;9.028;2023-04-16T11:17:19;32.50;;;24.80;;
8413;SDS011;4244;48.684;9.028;2023-04-16T11:19:45;30.60;;;23.80;;
8413;SDS011;4244;48.684;9.028;2023-04-16T11:22:12;25.07;;;19.27;;
8413;SDS011;4244;48.684;9.028;2023-04-16T11:24:41;21.60;;;17.37;;
8413;SDS011;4244;48.684;9.028;2023-04-16T11:27:11;23.33;;;17.03;;
8413;SDS011;4244;48.684;9.028;2023-04-16T11:29:40;18.27;;;13.30;;
8413;SDS011;4244;48.684;9.028;2023-04-16T11:32:05;25.70;;;19.20;;
8413;SDS011;4244;48.684;9.028;2023-04-16T11:34:31;22.13;;;16.73;;
8413;SDS011;4244;48.684;9.028;2023-04-16T11:36:57;21.50;;;16.67;;
8413;SDS011;4244;48.684;9.028;2023-04-16T11:39:23;24.47;;;18.63;;
8413;SDS011;4244;48.684;9.028;2023-04-16T11:41:49;22.47;;;17.60;;
8413;SDS011;4244;48.684;9.028;2023-04-16T11:46:42;16.23;;;13.83;;
8413;SDS011;4244;48.684;9.028;2023-04-16T11:49:07;16.70;;;14.33;;
8413;SDS011;4244;48.684;9.028;2023-04-16T11:51:38;21.37;;;17.87;;
8413;SDS011;4244;48.684;9.028;2023-04-16T11:54:07;16.83;;;14.50;;
8413;SDS011;4244;48.684;9.028;2023-04-16T11:56:33;18.97;;;12.90;;
8413;SDS011;4244;48.684;9.028;2023-04-16T11:59:07;14.13;;;10.93;;
8413;SDS011;4244;48.684;9.028;2023-04-16T12:01:34;14.60;;;13.10;;
8413;SDS011;4244;48.684;9.028;2023-04-16T12:04:00;26.33;;;21.07;;
8413;SDS011;4244;48.684;9.028;2023-04-16T12:06:26;18.47;;;15.03;;
8413;SDS011;4244;48.684;9.028;2023-04-16T12:08:52;16.77;;;13.50;;
8413;SDS011;4244;48.684;9.028;2023-04-16T12:11:18;18.97;;;15.77;;
8413;SDS011;4244;48.684;9.028;2023-04-16T12:16:33;8.73;;;7.83;;
8413;SDS011;4244;48.684;9.028;2023-04-16T12:19:00;25.40;;;22.63;;
8413;SDS011;4244;48.684;9.028;2023-04-16T12:24:13;20.00;;;16.43;;
8413;SDS011;4244;48.684;9.028;2023-04-16T12:26:51;20.80;;;17.00;;
8413;SDS011;4244;48.684;9.028;2023-04-16T12:29:24;21.90;;;19.53;;
8413;SDS011;4244;48.684;9.028;2023-04-16T12:31:52;29.10;;;23.40;;
8413;SDS011;4244;48.684;9.028;2023-04-16T12:34:18;10.93;;;9.83;;
8413;SDS011;4244;48.684;9.028;2023-04-16T12:36:45;11.53;;;9.10;;
8413;SDS011;4244;48.684;9.028;2023-04-16T12:39:12;14.87;;;13.47;;
8413;SDS011;4244;48.684;9.028;2023-04-16T12:41:39;6.63;;;6.03;;
8413;SDS011;4244;48.684;9.028;2023-04-16T12:44:06;6.10;;;5.50;;
8413;SDS011;4244;48.684;9.028;2023-04-16T12:46:33;6.97;;;6.33;;
8413;SDS011;4244;48.684;9.028;2023-04-16T12:49:00;6.97;;;6.20;;
8413;SDS011;4244;48.684;9.028;2023-04-16T12:51:26;6.43;;;5.83;;
8413;SDS011;4244;48.684;9.028;2023-04-16T12:53:52;6.37;;;5.77;;
8413;SDS011;4244;48.684;9.028;2023-04-16T12:56:18;6.50;;;5.50;;
8413;SDS011;4244;48.684;9.028;2023-04-16T12:58:44;5.50;;;5.00;;
8413;SDS011;4244;48.684;9.028;2023-04-16T13:01:16;5.40;;;4.33;;
8413;SDS011;4244;48.684;9.028;2023-04-16T13:03:42;4.63;;;3.60;;
8413;SDS011;4244;48.684;9.028;2023-04-16T13:06:08;5.53;;;5.03;;
8413;SDS011;4244;48.684;9.028;2023-04-16T13:08:33;5.17;;;4.17;;
8413;SDS011;4244;48.684;9.028;2023-04-16T13:10:59;5.13;;;4.63;;
8413;SDS011;4244;48.684;9.028;2023-04-16T13:13:25;4.57;;;4.10;;
8413;SDS011;4244;48.684;9.028;2023-04-16T13:15:50;4.77;;;4.00;;
8413;SDS011;4244;48.684;9.028;2023-04-16T13:18:16;4.90;;;4.43;;
8413;SDS011;4244;48.684;9.028;2023-04-16T13:20:42;4.70;;;4.20;;
8413;SDS011;4244;48.684;9.028;2023-04-16T13:23:07;6.73;;;5.37;;
8413;SDS011;4244;48.684;9.028;2023-04-16T13:25:33;5.67;;;5.10;;
8413;SDS011;4244;48.684;9.028;2023-04-16T13:27:59;5.60;;;4.93;;
8413;SDS011;4244;48.684;9.028;2023-04-16T13:30:25;5.80;;;5.20;;
8413;SDS011;4244;48.684;9.028;2023-04-16T13:32:53;5.17;;;4.67;;
8413;SDS011;4244;48.684;9.028;2023-04-16T13:35:19;6.57;;;5.67;;
8413;SDS011;4244;48.684;9.028;2023-04-16T13:37:45;4.60;;;4.17;;
8413;SDS011;4244;48.684;9.028;2023-04-16T13:40:10;6.07;;;5.47;;
8413;SDS011;4244;48.684;9.028;2023-04-16T13:42:36;5.30;;;4.80;;
8413;SDS011;4244;48.684;9.028;2023-04-16T13:45:02;5.53;;;4.93;;
8413;SDS011;4244;48.684;9.028;2023-04-16T13:47:27;5.53;;;5.00;;
8413;SDS011;4244;48.684;9.028;2023-04-16T13:49:53;6.43;;;5.50;;
8413;SDS011;4244;48.684;9.028;2023-04-16T13:52:19;6.90;;;6.07;;
8413;SDS011;4244;48.684;9.028;2023-04-16T13:54:44;7.10;;;5.90;;
8413;SDS011;4244;48.684;9.028;2023-04-16T13:57:11;6.87;;;6.17;;
8413;SDS011;4244;48.684;9.028;2023-04-16T13:59:36;7.10;;;6.27;;
8413;SDS011;4244;48.684;9.028;2023-04-16T14:02:02;6.37;;;5.77;;
8413;SDS011;4244;48.684;9.028;2023-04-16T14:04:29;7.20;;;6.47;;
8413;SDS011;4244;48.684;9.028;2023-04-16T14:06:56;7.90;;;6.63;;
8413;SDS011;4244;48.684;9.028;2023-04-16T14:09:21;7.57;;;6.87;;
8413;SDS011;4244;48.684;9.028;2023-04-16T14:11:47;8.17;;;7.33;;
8413;SDS011;4244;48.684;9.028;2023-04-16T14:14:12;8.57;;;7.47;;
8413;SDS011;4244;48.684;9.028;2023-04-16T14:16:38;9.63;;;8.53;;
8413;SDS011;4244;48.684;9.028;2023-04-16T14:19:04;10.20;;;8.50;;
8413;SDS011;4244;48.684;9.028;2023-04-16T14:21:29;12.20;;;9.33;;
8413;SDS011;4244;48.684;9.028;2023-04-16T14:23:55;9.87;;;8.87;;
8413;SDS011;4244;48.684;9.028;2023-04-16T14:26:21;11.80;;;8.60;;
8413;SDS011;4244;48.684;9.028;2023-04-16T14:28:46;8.70;;;7.80;;
8413;SDS011;4244;48.684;9.028;2023-04-16T14:31:12;11.37;;;10.20;;
8413;SDS011;4244;48.684;9.028;2023-04-16T14:33:38;9.20;;;8.00;;
8413;SDS011;4244;48.684;9.028;2023-04-16T14:36:04;12.70;;;10.50;;
8413;SDS011;4244;48.684;9.028;2023-04-16T14:38:29;11.40;;;10.20;;
8413;SDS011;4244;48.684;9.028;2023-04-16T14:40:56;10.70;;;8.80;;
8413;SDS011;4244;48.684;9.028;2023-04-16T14:43:21;10.10;;;9.10;;
8413;SDS011;4244;48.684;9.028;2023-04-16T14:45:47;19.20;;;16.57;;
8413;SDS011;4244;48.684;9.028;2023-04-16T14:48:12;20.83;;;17.60;;
8413;SDS011;4244;48.684;9.028;2023-04-16T14:50:38;24.00;;;18.80;;
8413;SDS011;4244;48.684;9.028;2023-04-16T14:53:07;14.60;;;13.10;;
8413;SDS011;4244;48.684;9.028;2023-04-16T14:55:33;18.07;;;15.00;;
8413;SDS011;4244;48.684;9.028;2023-04-16T14:57:59;20.87;;;17.27;;
8413;SDS011;4244;48.684;9.028;2023-04-16T15:00:25;14.57;;;13.13;;
8413;SDS011;4244;48.684;9.028;2023-04-16T15:02:51;16.17;;;13.10;;
8413;SDS011;4244;48.684;9.028;2023-04-16T15:05:18;15.60;;;13.27;;
8413;SDS011;4244;48.684;9.028;2023-04-16T15:07:43;18.73;;;16.73;;
8413;SDS011;4244;48.684;9.028;2023-04-16T15:10:09;21.13;;;18.47;;
8413;SDS011;4244;48.684;9.028;2023-04-16T15:12:36;19.33;;;17.10;;
8413;SDS011;4244;48.684;9.028;2023-04-16T15:15:03;7.53;;;6.77;;